sensor_id;sensor_type;location;lat;lon;timestamp;P1;durP1;ratioP1;P2;durP2;ratioP2
74933;SDS011;63499;53.232;7.492;2023-05-16T00:46:04;21.23;;;2.97;;
74933;SDS011;63499;53.232;7.492;2023-05-16T00:48:31;19.50;;;3.15;;
74933;SDS011;63499;53.232;7.492;2023-05-16T00:50:59;17.58;;;2.42;;
74933;SDS011;63499;53.232;7.492;2023-05-16T00:53:26;14.10;;;2.10;;
74933;SDS011;63499;53.232;7.492;2023-05-16T00:55:53;17.48;;;2.80;;
74933;SDS011;63499;53.232;7.492;2023-05-16T00:58:20;20.63;;;2.55;;
74933;SDS011;63499;53.232;7.492;2023-05-16T01:00:51;16.83;;;1.90;;
74933;SDS011;63499;53.232;7.492;2023-05-16T01:03:18;16.27;;;2.10;;
74933;SDS011;63499;53.232;7.492;2023-05-16T01:05:44;14.88;;;2.20;;
74933;SDS011;63499;53.232;7.492;2023-05-16T01:08:12;21.52;;;2.53;;
74933;SDS011;63499;53.232;7.492;2023-05-16T01:10:40;13.52;;;2.00;;
74933;SDS011;63499;53.232;7.492;2023-05-16T01:13:10;17.70;;;2.40;;
74933;SDS011;63499;53.232;7.492;2023-05-16T01:15:42;17.05;;;2.42;;
74933;SDS011;63499;53.232;7.492;2023-05-16T01:18:24;14.13;;;2.10;;
74933;SDS011;63499;53.232;7.492;2023-05-16T01:20:55;22.58;;;2.83;;
74933;SDS011;63499;53.232;7.492;2023-05-16T01:23:43;18.88;;;2.22;;
74933;SDS011;63499;53.232;7.492;2023-05-16T01:26:17;14.88;;;2.22;;
74933;SDS011;63499;53.232;7.492;2023-05-16T01:28:44;14.45;;;2.50;;
74933;SDS011;63499;53.232;7.492;2023-05-16T01:31:12;21.60;;;2.67;;
74933;SDS011;63499;53.232;7.492;2023-05-16T01:33:43;16.63;;;1.80;;
74933;SDS011;63499;53.232;7.492;2023-05-16T01:44:20;22.90;;;2.60;;
74933;SDS011;63499;53.232;7.492;2023-05-16T01:46:48;18.20;;;2.28;;
74933;SDS011;63499;53.232;7.492;2023-05-16T01:51:49;13.85;;;2.60;;
74933;SDS011;63499;53.232;7.492;2023-05-16T01:54:17;18.15;;;2.10;;
74933;SDS011;63499;53.232;7.492;2023-05-16T01:56:51;14.85;;;2.00;;
74933;SDS011;63499;53.232;7.492;2023-05-16T01:59:24;10.07;;;1.38;;
74933;SDS011;63499;53.232;7.492;2023-05-16T02:01:53;16.25;;;2.75;;
74933;SDS011;63499;53.232;7.492;2023-05-16T02:04:19;14.65;;;2.10;;
74933;SDS011;63499;53.232;7.492;2023-05-16T02:06:46;14.15;;;1.77;;
74933;SDS011;63499;53.232;7.492;2023-05-16T02:09:15;18.30;;;2.97;;
74933;SDS011;63499;53.232;7.492;2023-05-16T02:11:41;17.58;;;2.08;;
74933;SDS011;63499;53.232;7.492;2023-05-16T02:14:08;20.05;;;2.22;;
74933;SDS011;63499;53.232;7.492;2023-05-16T02:16:36;20.08;;;2.47;;
74933;SDS011;63499;53.232;7.492;2023-05-16T02:19:03;14.70;;;1.42;;
74933;SDS011;63499;53.232;7.492;2023-05-16T02:21:31;13.75;;;2.25;;
74933;SDS011;63499;53.232;7.492;2023-05-16T02:23:57;19.02;;;1.65;;
74933;SDS011;63499;53.232;7.492;2023-05-16T02:26:25;11.60;;;1.48;;
74933;SDS011;63499;53.232;7.492;2023-05-16T02:28:52;18.98;;;2.08;;
74933;SDS011;63499;53.232;7.492;2023-05-16T02:31:24;17.30;;;2.63;;
74933;SDS011;63499;53.232;7.492;2023-05-16T02:33:50;8.85;;;1.38;;
74933;SDS011;63499;53.232;7.492;2023-05-16T02:36:17;12.98;;;1.80;;
74933;SDS011;63499;53.232;7.492;2023-05-16T02:38:43;13.00;;;2.38;;
74933;SDS011;63499;53.232;7.492;2023-05-16T02:41:10;18.80;;;1.83;;
74933;SDS011;63499;53.232;7.492;2023-05-16T02:43:36;15.73;;;2.10;;
74933;SDS011;63499;53.232;7.492;2023-05-16T02:46:03;12.95;;;1.70;;
74933;SDS011;63499;53.232;7.492;2023-05-16T02:48:30;20.85;;;2.13;;
74933;SDS011;63499;53.232;7.492;2023-05-16T02:50:57;16.90;;;2.40;;
74933;SDS011;63499;53.232;7.492;2023-05-16T02:53:23;13.13;;;1.48;;
74933;SDS011;63499;53.232;7.492;2023-05-16T02:55:50;16.92;;;1.83;;
74933;SDS011;63499;53.232;7.492;2023-05-16T02:58:18;11.63;;;1.40;;
74933;SDS011;63499;53.232;7.492;2023-05-16T03:00:44;14.90;;;2.45;;
74933;SDS011;63499;53.232;7.492;2023-05-16T03:03:10;9.52;;;1.40;;
74933;SDS011;63499;53.232;7.492;2023-05-16T03:05:39;10.57;;;2.17;;
74933;SDS011;63499;53.232;7.492;2023-05-16T03:08:06;13.02;;;1.88;;
74933;SDS011;63499;53.232;7.492;2023-05-16T03:10:32;18.10;;;1.80;;
74933;SDS011;63499;53.232;7.492;2023-05-16T03:12:59;15.30;;;2.20;;
74933;SDS011;63499;53.232;7.492;2023-05-16T03:15:25;11.98;;;1.80;;
74933;SDS011;63499;53.232;7.492;2023-05-16T03:17:52;10.90;;;1.38;;
74933;SDS011;63499;53.232;7.492;2023-05-16T03:20:18;13.73;;;1.40;;
74933;SDS011;63499;53.232;7.492;2023-05-16T03:22:45;10.20;;;1.50;;
74933;SDS011;63499;53.232;7.492;2023-05-16T03:25:12;14.48;;;1.85;;
74933;SDS011;63499;53.232;7.492;2023-05-16T03:27:39;13.85;;;1.50;;
74933;SDS011;63499;53.232;7.492;2023-05-16T03:30:06;13.82;;;2.03;;
74933;SDS011;63499;53.232;7.492;2023-05-16T03:32:33;14.52;;;1.85;;
74933;SDS011;63499;53.232;7.492;2023-05-16T03:35:02;14.63;;;2.35;;
74933;SDS011;63499;53.232;7.492;2023-05-16T03:37:28;15.10;;;2.10;;
74933;SDS011;63499;53.232;7.492;2023-05-16T03:39:56;17.98;;;1.40;;
74933;SDS011;63499;53.232;7.492;2023-05-16T03:42:22;11.90;;;1.65;;
74933;SDS011;63499;53.232;7.492;2023-05-16T03:44:49;13.50;;;2.15;;
74933;SDS011;63499;53.232;7.492;2023-05-16T03:47:15;13.25;;;1.92;;
74933;SDS011;63499;53.232;7.492;2023-05-16T03:49:42;17.25;;;2.05;;
74933;SDS011;63499;53.232;7.492;2023-05-16T03:52:08;12.00;;;1.42;;
74933;SDS011;63499;53.232;7.492;2023-05-16T03:54:35;12.05;;;2.00;;
74933;SDS011;63499;53.232;7.492;2023-05-16T03:57:02;9.15;;;1.77;;
74933;SDS011;63499;53.232;7.492;2023-05-16T03:59:28;14.13;;;1.77;;
74933;SDS011;63499;53.232;7.492;2023-05-16T04:01:55;11.57;;;1.45;;
74933;SDS011;63499;53.232;7.492;2023-05-16T04:04:22;15.30;;;2.60;;
74933;SDS011;63499;53.232;7.492;2023-05-16T04:06:48;12.13;;;1.98;;
74933;SDS011;63499;53.232;7.492;2023-05-16T04:09:15;10.93;;;1.50;;
74933;SDS011;63499;53.232;7.492;2023-05-16T04:11:42;10.80;;;1.13;;
74933;SDS011;63499;53.232;7.492;2023-05-16T04:14:08;17.45;;;1.92;;
74933;SDS011;63499;53.232;7.492;2023-05-16T04:16:35;12.80;;;2.38;;
74933;SDS011;63499;53.232;7.492;2023-05-16T04:19:01;15.85;;;1.80;;
74933;SDS011;63499;53.232;7.492;2023-05-16T04:21:28;13.70;;;1.90;;
74933;SDS011;63499;53.232;7.492;2023-05-16T04:23:54;15.77;;;2.08;;
74933;SDS011;63499;53.232;7.492;2023-05-16T04:26:22;11.15;;;1.85;;
74933;SDS011;63499;53.232;7.492;2023-05-16T04:28:49;10.63;;;2.03;;
74933;SDS011;63499;53.232;7.492;2023-05-16T04:31:15;9.90;;;1.45;;
74933;SDS011;63499;53.232;7.492;2023-05-16T04:33:42;17.60;;;1.42;;
74933;SDS011;63499;53.232;7.492;2023-05-16T04:36:09;16.35;;;2.22;;
74933;SDS011;63499;53.232;7.492;2023-05-16T04:38:35;11.63;;;1.90;;
74933;SDS011;63499;53.232;7.492;2023-05-16T04:41:02;9.48;;;1.40;;
74933;SDS011;63499;53.232;7.492;2023-05-16T04:43:29;13.20;;;1.95;;
74933;SDS011;63499;53.232;7.492;2023-05-16T04:45:56;13.27;;;1.90;;
74933;SDS011;63499;53.232;7.492;2023-05-16T04:48:23;10.63;;;1.67;;
74933;SDS011;63499;53.232;7.492;2023-05-16T04:50:50;14.10;;;2.05;;
74933;SDS011;63499;53.232;7.492;2023-05-16T04:53:17;12.70;;;1.85;;
74933;SDS011;63499;53.232;7.492;2023-05-16T04:55:43;16.17;;;1.83;;
74933;SDS011;63499;53.232;7.492;2023-05-16T04:58:10;13.35;;;1.42;;
74933;SDS011;63499;53.232;7.492;2023-05-16T05:00:37;12.25;;;1.80;;
74933;SDS011;63499;53.232;7.492;2023-05-16T05:03:07;18.00;;;2.22;;
74933;SDS011;63499;53.232;7.492;2023-05-16T05:05:37;16.85;;;3.08;;
74933;SDS011;63499;53.232;7.492;2023-05-16T05:08:04;17.35;;;1.90;;
74933;SDS011;63499;53.232;7.492;2023-05-16T05:10:31;14.55;;;1.67;;
74933;SDS011;63499;53.232;7.492;2023-05-16T05:13:02;8.05;;;1.55;;
74933;SDS011;63499;53.232;7.492;2023-05-16T05:15:29;14.05;;;1.67;;
74933;SDS011;63499;53.232;7.492;2023-05-16T05:17:56;6.38;;;1.45;;
74933;SDS011;63499;53.232;7.492;2023-05-16T05:20:22;7.38;;;1.15;;
74933;SDS011;63499;53.232;7.492;2023-05-16T05:22:49;19.15;;;1.67;;
74933;SDS011;63499;53.232;7.492;2023-05-16T05:25:16;10.85;;;1.67;;
74933;SDS011;63499;53.232;7.492;2023-05-16T05:27:43;10.98;;;1.85;;
74933;SDS011;63499;53.232;7.492;2023-05-16T05:30:10;11.73;;;1.65;;
74933;SDS011;63499;53.232;7.492;2023-05-16T05:32:39;10.30;;;1.20;;
74933;SDS011;63499;53.232;7.492;2023-05-16T05:35:06;13.48;;;1.70;;
74933;SDS011;63499;53.232;7.492;2023-05-16T05:37:32;14.35;;;1.80;;
74933;SDS011;63499;53.232;7.492;2023-05-16T05:40:00;9.50;;;1.45;;
74933;SDS011;63499;53.232;7.492;2023-05-16T05:42:27;13.10;;;1.60;;
74933;SDS011;63499;53.232;7.492;2023-05-16T05:44:54;9.80;;;2.08;;
74933;SDS011;63499;53.232;7.492;2023-05-16T05:47:21;14.13;;;1.58;;
74933;SDS011;63499;53.232;7.492;2023-05-16T05:49:53;17.65;;;1.55;;
74933;SDS011;63499;53.232;7.492;2023-05-16T05:52:19;11.25;;;1.33;;
74933;SDS011;63499;53.232;7.492;2023-05-16T05:54:46;11.77;;;1.92;;
74933;SDS011;63499;53.232;7.492;2023-05-16T05:57:14;10.48;;;1.65;;
74933;SDS011;63499;53.232;7.492;2023-05-16T05:59:40;8.70;;;1.33;;
74933;SDS011;63499;53.232;7.492;2023-05-16T06:02:07;19.13;;;2.22;;
74933;SDS011;63499;53.232;7.492;2023-05-16T06:04:37;10.30;;;1.05;;
74933;SDS011;63499;53.232;7.492;2023-05-16T06:07:03;15.35;;;1.80;;
74933;SDS011;63499;53.232;7.492;2023-05-16T06:09:30;8.93;;;1.05;;
74933;SDS011;63499;53.232;7.492;2023-05-16T06:11:57;9.02;;;1.85;;
74933;SDS011;63499;53.232;7.492;2023-05-16T06:14:24;9.98;;;1.92;;
74933;SDS011;63499;53.232;7.492;2023-05-16T06:16:51;9.80;;;1.23;;
74933;SDS011;63499;53.232;7.492;2023-05-16T06:19:21;16.92;;;2.08;;
74933;SDS011;63499;53.232;7.492;2023-05-16T06:21:50;6.97;;;1.38;;
74933;SDS011;63499;53.232;7.492;2023-05-16T06:24:16;11.55;;;1.27;;
74933;SDS011;63499;53.232;7.492;2023-05-16T06:26:43;9.63;;;2.20;;
74933;SDS011;63499;53.232;7.492;2023-05-16T06:29:15;13.10;;;1.55;;
74933;SDS011;63499;53.232;7.492;2023-05-16T06:31:42;7.13;;;0.90;;
74933;SDS011;63499;53.232;7.492;2023-05-16T06:34:10;7.88;;;0.98;;
74933;SDS011;63499;53.232;7.492;2023-05-16T06:36:39;8.82;;;1.60;;
74933;SDS011;63499;53.232;7.492;2023-05-16T06:39:08;10.80;;;1.38;;
74933;SDS011;63499;53.232;7.492;2023-05-16T06:41:38;12.40;;;1.33;;
74933;SDS011;63499;53.232;7.492;2023-05-16T06:44:05;9.15;;;1.88;;
74933;SDS011;63499;53.232;7.492;2023-05-16T06:46:32;5.55;;;1.05;;
74933;SDS011;63499;53.232;7.492;2023-05-16T06:48:59;8.60;;;1.27;;
74933;SDS011;63499;53.232;7.492;2023-05-16T06:51:25;12.30;;;2.05;;
74933;SDS011;63499;53.232;7.492;2023-05-16T06:53:52;8.38;;;1.10;;
74933;SDS011;63499;53.232;7.492;2023-05-16T06:56:18;9.13;;;1.55;;
74933;SDS011;63499;53.232;7.492;2023-05-16T06:58:46;11.60;;;1.65;;
74933;SDS011;63499;53.232;7.492;2023-05-16T07:01:14;10.48;;;1.55;;
74933;SDS011;63499;53.232;7.492;2023-05-16T07:03:41;12.77;;;1.80;;
74933;SDS011;63499;53.232;7.492;2023-05-16T07:06:07;12.20;;;2.03;;
74933;SDS011;63499;53.232;7.492;2023-05-16T07:08:34;8.77;;;1.30;;
74933;SDS011;63499;53.232;7.492;2023-05-16T07:11:01;13.75;;;2.38;;
74933;SDS011;63499;53.232;7.492;2023-05-16T07:13:28;17.40;;;2.13;;
74933;SDS011;63499;53.232;7.492;2023-05-16T07:15:55;10.93;;;1.48;;
74933;SDS011;63499;53.232;7.492;2023-05-16T07:18:22;15.25;;;1.40;;
74933;SDS011;63499;53.232;7.492;2023-05-16T07:20:48;6.85;;;0.93;;
74933;SDS011;63499;53.232;7.492;2023-05-16T07:23:17;9.52;;;1.45;;
74933;SDS011;63499;53.232;7.492;2023-05-16T07:25:43;11.73;;;1.38;;
74933;SDS011;63499;53.232;7.492;2023-05-16T07:28:10;14.73;;;1.30;;
74933;SDS011;63499;53.232;7.492;2023-05-16T07:30:37;9.95;;;1.38;;
74933;SDS011;63499;53.232;7.492;2023-05-16T07:33:04;8.98;;;1.35;;
74933;SDS011;63499;53.232;7.492;2023-05-16T07:35:30;18.80;;;1.88;;
74933;SDS011;63499;53.232;7.492;2023-05-16T07:37:57;7.68;;;1.45;;
74933;SDS011;63499;53.232;7.492;2023-05-16T07:40:24;11.40;;;1.58;;
74933;SDS011;63499;53.232;7.492;2023-05-16T07:42:53;9.80;;;1.40;;
74933;SDS011;63499;53.232;7.492;2023-05-16T07:45:23;9.65;;;1.30;;
74933;SDS011;63499;53.232;7.492;2023-05-16T07:47:53;7.82;;;1.27;;
74933;SDS011;63499;53.232;7.492;2023-05-16T07:50:20;4.18;;;1.00;;
74933;SDS011;63499;53.232;7.492;2023-05-16T07:52:47;16.15;;;1.20;;
74933;SDS011;63499;53.232;7.492;2023-05-16T07:55:13;10.43;;;1.17;;
74933;SDS011;63499;53.232;7.492;2023-05-16T07:57:40;11.13;;;2.08;;
74933;SDS011;63499;53.232;7.492;2023-05-16T08:00:08;7.63;;;1.23;;
74933;SDS011;63499;53.232;7.492;2023-05-16T08:02:38;7.85;;;1.40;;
74933;SDS011;63499;53.232;7.492;2023-05-16T08:05:05;11.30;;;1.58;;
74933;SDS011;63499;53.232;7.492;2023-05-16T08:07:32;11.20;;;1.70;;
74933;SDS011;63499;53.232;7.492;2023-05-16T08:10:02;9.40;;;1.20;;
74933;SDS011;63499;53.232;7.492;2023-05-16T08:12:28;14.52;;;1.95;;
74933;SDS011;63499;53.232;7.492;2023-05-16T08:14:55;9.25;;;1.73;;
74933;SDS011;63499;53.232;7.492;2023-05-16T08:17:22;14.20;;;1.50;;
74933;SDS011;63499;53.232;7.492;2023-05-16T08:19:49;8.00;;;1.13;;
74933;SDS011;63499;53.232;7.492;2023-05-16T08:22:15;9.48;;;1.38;;
74933;SDS011;63499;53.232;7.492;2023-05-16T08:24:42;8.98;;;1.48;;
74933;SDS011;63499;53.232;7.492;2023-05-16T08:27:09;10.02;;;1.48;;
74933;SDS011;63499;53.232;7.492;2023-05-16T08:29:36;6.05;;;1.48;;
74933;SDS011;63499;53.232;7.492;2023-05-16T08:32:04;8.88;;;1.40;;
74933;SDS011;63499;53.232;7.492;2023-05-16T08:34:31;4.82;;;1.05;;
74933;SDS011;63499;53.232;7.492;2023-05-16T08:36:58;8.07;;;1.23;;
74933;SDS011;63499;53.232;7.492;2023-05-16T08:39:25;8.80;;;1.73;;
74933;SDS011;63499;53.232;7.492;2023-05-16T08:41:52;7.63;;;1.00;;
74933;SDS011;63499;53.232;7.492;2023-05-16T08:44:19;7.82;;;1.10;;
74933;SDS011;63499;53.232;7.492;2023-05-16T08:46:49;6.90;;;1.02;;
74933;SDS011;63499;53.232;7.492;2023-05-16T08:49:19;4.20;;;0.90;;
74933;SDS011;63499;53.232;7.492;2023-05-16T08:51:47;9.70;;;1.17;;
74933;SDS011;63499;53.232;7.492;2023-05-16T08:54:14;4.90;;;1.00;;
74933;SDS011;63499;53.232;7.492;2023-05-16T08:56:44;7.38;;;1.27;;
74933;SDS011;63499;53.232;7.492;2023-05-16T08:59:12;3.35;;;0.60;;
74933;SDS011;63499;53.232;7.492;2023-05-16T09:01:41;7.93;;;1.67;;
74933;SDS011;63499;53.232;7.492;2023-05-16T09:04:08;8.77;;;1.50;;
74933;SDS011;63499;53.232;7.492;2023-05-16T09:06:35;8.75;;;1.40;;
74933;SDS011;63499;53.232;7.492;2023-05-16T09:09:05;10.60;;;1.17;;
74933;SDS011;63499;53.232;7.492;2023-05-16T09:11:33;4.85;;;0.80;;
74933;SDS011;63499;53.232;7.492;2023-05-16T09:14:00;5.47;;;1.35;;
74933;SDS011;63499;53.232;7.492;2023-05-16T09:16:27;8.20;;;0.93;;
74933;SDS011;63499;53.232;7.492;2023-05-16T09:18:55;1.83;;;0.50;;
74933;SDS011;63499;53.232;7.492;2023-05-16T09:21:22;2.90;;;0.68;;
74933;SDS011;63499;53.232;7.492;2023-05-16T09:23:49;4.40;;;1.00;;
74933;SDS011;63499;53.232;7.492;2023-05-16T09:26:15;6.82;;;0.82;;
74933;SDS011;63499;53.232;7.492;2023-05-16T09:28:44;5.13;;;0.90;;
74933;SDS011;63499;53.232;7.492;2023-05-16T09:31:20;10.05;;;1.20;;
74933;SDS011;63499;53.232;7.492;2023-05-16T09:33:47;10.40;;;1.15;;
74933;SDS011;63499;53.232;7.492;2023-05-16T09:36:15;6.40;;;1.08;;
74933;SDS011;63499;53.232;7.492;2023-05-16T09:38:41;9.00;;;1.20;;
74933;SDS011;63499;53.232;7.492;2023-05-16T09:41:08;6.82;;;1.10;;
74933;SDS011;63499;53.232;7.492;2023-05-16T09:43:39;5.00;;;1.30;;
74933;SDS011;63499;53.232;7.492;2023-05-16T09:46:07;12.05;;;1.30;;
74933;SDS011;63499;53.232;7.492;2023-05-16T09:48:34;7.57;;;1.02;;
74933;SDS011;63499;53.232;7.492;2023-05-16T09:51:04;6.47;;;0.90;;
74933;SDS011;63499;53.232;7.492;2023-05-16T09:53:31;4.07;;;0.57;;
74933;SDS011;63499;53.232;7.492;2023-05-16T09:55:59;4.63;;;0.80;;
74933;SDS011;63499;53.232;7.492;2023-05-16T09:58:30;3.15;;;0.52;;
74933;SDS011;63499;53.232;7.492;2023-05-16T10:00:57;5.25;;;0.60;;
74933;SDS011;63499;53.232;7.492;2023-05-16T10:03:25;1.38;;;0.43;;
74933;SDS011;63499;53.232;7.492;2023-05-16T10:05:52;9.63;;;1.23;;
74933;SDS011;63499;53.232;7.492;2023-05-16T10:08:20;3.65;;;0.47;;
74933;SDS011;63499;53.232;7.492;2023-05-16T10:10:50;3.45;;;0.70;;
74933;SDS011;63499;53.232;7.492;2023-05-16T10:13:19;5.13;;;0.70;;
74933;SDS011;63499;53.232;7.492;2023-05-16T10:15:46;7.07;;;1.02;;
74933;SDS011;63499;53.232;7.492;2023-05-16T10:18:14;6.22;;;1.05;;
74933;SDS011;63499;53.232;7.492;2023-05-16T10:20:43;6.65;;;0.98;;
74933;SDS011;63499;53.232;7.492;2023-05-16T10:23:13;6.97;;;0.60;;
74933;SDS011;63499;53.232;7.492;2023-05-16T10:25:41;7.20;;;0.98;;
74933;SDS011;63499;53.232;7.492;2023-05-16T10:28:08;4.25;;;0.75;;
74933;SDS011;63499;53.232;7.492;2023-05-16T10:30:35;4.55;;;0.82;;
74933;SDS011;63499;53.232;7.492;2023-05-16T10:33:02;3.47;;;0.43;;
74933;SDS011;63499;53.232;7.492;2023-05-16T10:35:30;3.63;;;0.63;;
74933;SDS011;63499;53.232;7.492;2023-05-16T10:37:57;6.90;;;0.77;;
74933;SDS011;63499;53.232;7.492;2023-05-16T10:40:25;1.65;;;0.50;;
74933;SDS011;63499;53.232;7.492;2023-05-16T10:42:56;8.65;;;1.30;;
74933;SDS011;63499;53.232;7.492;2023-05-16T10:45:23;6.07;;;1.02;;
74933;SDS011;63499;53.232;7.492;2023-05-16T10:47:50;6.20;;;1.40;;
74933;SDS011;63499;53.232;7.492;2023-05-16T10:50:37;5.80;;;0.75;;
74933;SDS011;63499;53.232;7.492;2023-05-16T10:55:43;5.65;;;0.90;;
74933;SDS011;63499;53.232;7.492;2023-05-16T10:58:10;5.15;;;0.52;;
74933;SDS011;63499;53.232;7.492;2023-05-16T11:00:38;3.40;;;0.77;;
74933;SDS011;63499;53.232;7.492;2023-05-16T11:03:05;7.72;;;1.08;;
74933;SDS011;63499;53.232;7.492;2023-05-16T11:05:49;8.57;;;1.20;;
74933;SDS011;63499;53.232;7.492;2023-05-16T11:08:16;6.50;;;0.95;;
74933;SDS011;63499;53.232;7.492;2023-05-16T11:10:43;5.55;;;0.70;;
74933;SDS011;63499;53.232;7.492;2023-05-16T11:13:10;9.20;;;0.70;;
74933;SDS011;63499;53.232;7.492;2023-05-16T11:15:37;2.97;;;0.60;;
74933;SDS011;63499;53.232;7.492;2023-05-16T11:18:07;6.10;;;1.38;;
74933;SDS011;63499;53.232;7.492;2023-05-16T11:20:35;2.88;;;0.50;;
74933;SDS011;63499;53.232;7.492;2023-05-16T11:25:45;4.73;;;0.60;;
74933;SDS011;63499;53.232;7.492;2023-05-16T11:28:12;4.65;;;0.68;;
74933;SDS011;63499;53.232;7.492;2023-05-16T11:30:42;8.27;;;1.42;;
74933;SDS011;63499;53.232;7.492;2023-05-16T11:33:09;6.70;;;1.15;;
74933;SDS011;63499;53.232;7.492;2023-05-16T11:35:40;8.70;;;1.45;;
74933;SDS011;63499;53.232;7.492;2023-05-16T11:38:11;4.88;;;1.00;;
74933;SDS011;63499;53.232;7.492;2023-05-16T11:40:41;6.82;;;1.20;;
74933;SDS011;63499;53.232;7.492;2023-05-16T11:43:08;8.35;;;0.95;;
74933;SDS011;63499;53.232;7.492;2023-05-16T11:45:35;6.88;;;1.13;;
74933;SDS011;63499;53.232;7.492;2023-05-16T11:48:02;8.07;;;1.40;;
74933;SDS011;63499;53.232;7.492;2023-05-16T11:50:29;5.53;;;1.13;;
74933;SDS011;63499;53.232;7.492;2023-05-16T11:52:56;8.75;;;1.60;;
74933;SDS011;63499;53.232;7.492;2023-05-16T11:55:26;6.93;;;1.00;;
74933;SDS011;63499;53.232;7.492;2023-05-16T11:57:56;8.27;;;1.20;;
74933;SDS011;63499;53.232;7.492;2023-05-16T12:00:23;8.25;;;1.20;;
74933;SDS011;63499;53.232;7.492;2023-05-16T12:02:51;12.48;;;1.67;;
74933;SDS011;63499;53.232;7.492;2023-05-16T12:05:21;5.72;;;1.27;;
74933;SDS011;63499;53.232;7.492;2023-05-16T12:07:52;8.20;;;1.17;;
74933;SDS011;63499;53.232;7.492;2023-05-16T12:10:19;40.35;;;3.00;;
74933;SDS011;63499;53.232;7.492;2023-05-16T12:12:49;13.52;;;1.90;;
74933;SDS011;63499;53.232;7.492;2023-05-16T12:15:17;10.93;;;1.70;;
74933;SDS011;63499;53.232;7.492;2023-05-16T12:17:47;9.80;;;1.30;;
74933;SDS011;63499;53.232;7.492;2023-05-16T12:20:15;12.05;;;1.80;;
74933;SDS011;63499;53.232;7.492;2023-05-16T12:22:48;9.88;;;2.47;;
74933;SDS011;63499;53.232;7.492;2023-05-16T12:25:27;13.35;;;1.73;;
74933;SDS011;63499;53.232;7.492;2023-05-16T12:28:00;8.15;;;1.85;;
74933;SDS011;63499;53.232;7.492;2023-05-16T12:30:28;15.32;;;2.20;;
74933;SDS011;63499;53.232;7.492;2023-05-16T12:32:56;9.85;;;1.10;;
74933;SDS011;63499;53.232;7.492;2023-05-16T12:35:29;9.40;;;1.67;;
74933;SDS011;63499;53.232;7.492;2023-05-16T12:37:58;9.52;;;1.63;;
74933;SDS011;63499;53.232;7.492;2023-05-16T12:40:28;8.88;;;1.90;;
74933;SDS011;63499;53.232;7.492;2023-05-16T12:42:55;8.82;;;1.30;;
74933;SDS011;63499;53.232;7.492;2023-05-16T12:45:22;13.23;;;1.30;;
74933;SDS011;63499;53.232;7.492;2023-05-16T12:47:49;15.30;;;1.60;;
74933;SDS011;63499;53.232;7.492;2023-05-16T12:50:16;8.95;;;1.88;;
74933;SDS011;63499;53.232;7.492;2023-05-16T12:59:34;10.30;;;1.55;;
74933;SDS011;63499;53.232;7.492;2023-05-16T13:02:01;27.33;;;3.67;;
74933;SDS011;63499;53.232;7.492;2023-05-16T13:04:28;9.18;;;2.30;;
74933;SDS011;63499;53.232;7.492;2023-05-16T13:06:55;15.70;;;2.33;;
74933;SDS011;63499;53.232;7.492;2023-05-16T13:09:22;12.10;;;2.70;;
74933;SDS011;63499;53.232;7.492;2023-05-16T13:11:49;7.25;;;1.75;;
74933;SDS011;63499;53.232;7.492;2023-05-16T13:14:17;6.53;;;1.52;;
74933;SDS011;63499;53.232;7.492;2023-05-16T13:16:46;16.08;;;2.45;;
74933;SDS011;63499;53.232;7.492;2023-05-16T13:19:13;8.80;;;1.63;;
74933;SDS011;63499;53.232;7.492;2023-05-16T13:21:40;12.73;;;1.88;;
74933;SDS011;63499;53.232;7.492;2023-05-16T13:24:07;8.55;;;2.22;;
74933;SDS011;63499;53.232;7.492;2023-05-16T13:26:33;9.85;;;1.95;;
74933;SDS011;63499;53.232;7.492;2023-05-16T13:29:00;9.38;;;1.80;;
74933;SDS011;63499;53.232;7.492;2023-05-16T13:31:27;16.42;;;2.45;;
74933;SDS011;63499;53.232;7.492;2023-05-16T13:33:54;13.15;;;3.00;;
74933;SDS011;63499;53.232;7.492;2023-05-16T13:36:23;13.25;;;2.47;;
74933;SDS011;63499;53.232;7.492;2023-05-16T13:38:50;9.98;;;2.25;;
74933;SDS011;63499;53.232;7.492;2023-05-16T13:41:17;12.20;;;2.95;;
74933;SDS011;63499;53.232;7.492;2023-05-16T13:43:43;10.40;;;2.35;;
74933;SDS011;63499;53.232;7.492;2023-05-16T13:46:10;9.82;;;3.05;;
74933;SDS011;63499;53.232;7.492;2023-05-16T13:48:37;12.23;;;2.50;;
74933;SDS011;63499;53.232;7.492;2023-05-16T13:51:04;12.60;;;2.95;;
74933;SDS011;63499;53.232;7.492;2023-05-16T13:53:31;12.85;;;3.05;;
74933;SDS011;63499;53.232;7.492;2023-05-16T13:56:01;17.40;;;3.78;;
74933;SDS011;63499;53.232;7.492;2023-05-16T13:58:28;10.25;;;2.90;;
74933;SDS011;63499;53.232;7.492;2023-05-16T14:00:56;9.50;;;2.92;;
74933;SDS011;63499;53.232;7.492;2023-05-16T14:03:23;13.52;;;3.28;;
74933;SDS011;63499;53.232;7.492;2023-05-16T14:05:50;9.73;;;3.05;;
74933;SDS011;63499;53.232;7.492;2023-05-16T14:08:17;11.88;;;3.40;;
74933;SDS011;63499;53.232;7.492;2023-05-16T14:10:43;11.10;;;2.83;;
74933;SDS011;63499;53.232;7.492;2023-05-16T14:13:10;10.88;;;2.60;;
74933;SDS011;63499;53.232;7.492;2023-05-16T14:15:36;7.72;;;2.95;;
74933;SDS011;63499;53.232;7.492;2023-05-16T14:18:03;15.95;;;3.60;;
74933;SDS011;63499;53.232;7.492;2023-05-16T14:20:31;9.63;;;3.03;;
74933;SDS011;63499;53.232;7.492;2023-05-16T14:22:57;13.52;;;2.78;;
74933;SDS011;63499;53.232;7.492;2023-05-16T14:25:24;9.15;;;2.45;;
74933;SDS011;63499;53.232;7.492;2023-05-16T14:27:53;7.53;;;2.17;;
74933;SDS011;63499;53.232;7.492;2023-05-16T14:30:20;6.20;;;2.30;;
74933;SDS011;63499;53.232;7.492;2023-05-16T14:32:48;7.82;;;2.28;;
74933;SDS011;63499;53.232;7.492;2023-05-16T14:35:14;9.25;;;2.50;;
74933;SDS011;63499;53.232;7.492;2023-05-16T14:37:41;9.15;;;2.70;;
74933;SDS011;63499;53.232;7.492;2023-05-16T14:40:07;5.80;;;1.85;;
74933;SDS011;63499;53.232;7.492;2023-05-16T14:42:34;10.82;;;2.58;;
74933;SDS011;63499;53.232;7.492;2023-05-16T14:45:01;7.47;;;1.95;;
74933;SDS011;63499;53.232;7.492;2023-05-16T14:47:28;10.15;;;2.60;;
74933;SDS011;63499;53.232;7.492;2023-05-16T14:49:55;9.75;;;2.35;;
74933;SDS011;63499;53.232;7.492;2023-05-16T14:52:22;10.82;;;2.50;;
74933;SDS011;63499;53.232;7.492;2023-05-16T14:54:49;10.18;;;2.60;;
74933;SDS011;63499;53.232;7.492;2023-05-16T14:57:16;12.43;;;3.00;;
74933;SDS011;63499;53.232;7.492;2023-05-16T14:59:42;9.18;;;3.08;;
74933;SDS011;63499;53.232;7.492;2023-05-16T15:02:09;12.25;;;2.88;;
74933;SDS011;63499;53.232;7.492;2023-05-16T15:04:36;11.38;;;2.55;;
74933;SDS011;63499;53.232;7.492;2023-05-16T15:07:02;10.25;;;2.53;;
74933;SDS011;63499;53.232;7.492;2023-05-16T15:09:29;9.65;;;2.17;;
74933;SDS011;63499;53.232;7.492;2023-05-16T15:11:56;10.75;;;2.10;;
74933;SDS011;63499;53.232;7.492;2023-05-16T15:14:23;9.93;;;2.80;;
74933;SDS011;63499;53.232;7.492;2023-05-16T15:16:51;11.55;;;2.58;;
74933;SDS011;63499;53.232;7.492;2023-05-16T15:19:17;6.60;;;1.83;;
74933;SDS011;63499;53.232;7.492;2023-05-16T15:21:44;9.25;;;2.70;;
74933;SDS011;63499;53.232;7.492;2023-05-16T15:24:20;10.20;;;3.28;;
74933;SDS011;63499;53.232;7.492;2023-05-16T15:26:47;10.27;;;2.45;;
74933;SDS011;63499;53.232;7.492;2023-05-16T15:29:14;8.43;;;2.78;;
74933;SDS011;63499;53.232;7.492;2023-05-16T15:31:42;13.00;;;2.90;;
74933;SDS011;63499;53.232;7.492;2023-05-16T15:34:08;8.65;;;2.35;;
74933;SDS011;63499;53.232;7.492;2023-05-16T15:36:36;8.05;;;2.42;;
74933;SDS011;63499;53.232;7.492;2023-05-16T15:39:03;5.90;;;2.50;;
74933;SDS011;63499;53.232;7.492;2023-05-16T15:41:30;6.32;;;2.33;;
74933;SDS011;63499;53.232;7.492;2023-05-16T15:43:57;7.57;;;2.70;;
74933;SDS011;63499;53.232;7.492;2023-05-16T15:46:23;8.27;;;2.70;;
74933;SDS011;63499;53.232;7.492;2023-05-16T15:48:50;8.63;;;2.60;;
74933;SDS011;63499;53.232;7.492;2023-05-16T15:51:18;7.90;;;2.38;;